sensor_id;sensor_type;location;lat;lon;timestamp;temperature;humidity
55711;DHT22;41612;51.994;5.880;2023-05-17T00:00:54;9.90;80.50
55711;DHT22;41612;51.994;5.880;2023-05-17T00:03:20;9.90;80.50
55711;DHT22;41612;51.994;5.880;2023-05-17T00:05:46;9.80;80.40
55711;DHT22;41612;51.994;5.880;2023-05-17T00:08:11;9.80;80.40
55711;DHT22;41612;51.994;5.880;2023-05-17T00:10:40;9.80;80.30
55711;DHT22;41612;51.994;5.880;2023-05-17T00:13:05;9.80;80.40
55711;DHT22;41612;51.994;5.880;2023-05-17T00:15:31;9.80;80.50
55711;DHT22;41612;51.994;5.880;2023-05-17T00:17:57;9.80;80.60
55711;DHT22;41612;51.994;5.880;2023-05-17T00:20:23;9.70;80.70
55711;DHT22;41612;51.994;5.880;2023-05-17T00:22:49;9.80;80.80
55711;DHT22;41612;51.994;5.880;2023-05-17T00:25:15;9.80;80.80
55711;DHT22;41612;51.994;5.880;2023-05-17T00:27:41;9.80;80.80
55711;DHT22;41612;51.994;5.880;2023-05-17T00:30:08;9.70;80.90
55711;DHT22;41612;51.994;5.880;2023-05-17T00:32:35;9.70;80.90
55711;DHT22;41612;51.994;5.880;2023-05-17T00:35:01;9.70;80.90
55711;DHT22;41612;51.994;5.880;2023-05-17T00:37:27;9.70;81.00
55711;DHT22;41612;51.994;5.880;2023-05-17T00:39:53;9.70;80.90
55711;DHT22;41612;51.994;5.880;2023-05-17T00:42:19;9.70;80.80
55711;DHT22;41612;51.994;5.880;2023-05-17T00:44:46;9.70;80.90
55711;DHT22;41612;51.994;5.880;2023-05-17T00:47:12;9.70;80.90
55711;DHT22;41612;51.994;5.880;2023-05-17T00:49:38;9.70;80.90
55711;DHT22;41612;51.994;5.880;2023-05-17T00:52:04;9.60;80.90
55711;DHT22;41612;51.994;5.880;2023-05-17T00:54:30;9.60;80.90
55711;DHT22;41612;51.994;5.880;2023-05-17T00:56:57;9.60;80.90
55711;DHT22;41612;51.994;5.880;2023-05-17T00:59:25;9.60;80.90
55711;DHT22;41612;51.994;5.880;2023-05-17T01:01:53;9.60;80.80
55711;DHT22;41612;51.994;5.880;2023-05-17T01:04:19;9.50;80.80
55711;DHT22;41612;51.994;5.880;2023-05-17T01:06:45;9.50;80.90
55711;DHT22;41612;51.994;5.880;2023-05-17T01:09:11;9.50;81.00
55711;DHT22;41612;51.994;5.880;2023-05-17T01:12:00;9.50;80.90
55711;DHT22;41612;51.994;5.880;2023-05-17T01:20:09;9.50;80.70
55711;DHT22;41612;51.994;5.880;2023-05-17T01:22:42;9.40;80.70
55711;DHT22;41612;51.994;5.880;2023-05-17T01:25:27;9.40;80.80
55711;DHT22;41612;51.994;5.880;2023-05-17T01:27:56;9.40;81.00
55711;DHT22;41612;51.994;5.880;2023-05-17T01:30:24;9.40;81.00
55711;DHT22;41612;51.994;5.880;2023-05-17T01:32:53;9.40;81.10
55711;DHT22;41612;51.994;5.880;2023-05-17T01:35:20;9.30;81.10
55711;DHT22;41612;51.994;5.880;2023-05-17T01:37:46;9.30;81.00
55711;DHT22;41612;51.994;5.880;2023-05-17T01:40:13;9.30;81.00
55711;DHT22;41612;51.994;5.880;2023-05-17T01:42:40;9.30;80.90
55711;DHT22;41612;51.994;5.880;2023-05-17T01:45:29;9.30;80.90
55711;DHT22;41612;51.994;5.880;2023-05-17T01:48:03;9.30;80.90
55711;DHT22;41612;51.994;5.880;2023-05-17T01:50:32;9.30;81.00
55711;DHT22;41612;51.994;5.880;2023-05-17T01:53:33;9.30;81.00
55711;DHT22;41612;51.994;5.880;2023-05-17T01:56:26;9.30;80.90
55711;DHT22;41612;51.994;5.880;2023-05-17T01:58:55;9.40;80.80
55711;DHT22;41612;51.994;5.880;2023-05-17T02:01:27;9.50;80.70
55711;DHT22;41612;51.994;5.880;2023-05-17T02:03:53;9.50;80.50
55711;DHT22;41612;51.994;5.880;2023-05-17T02:06:19;9.50;80.30
55711;DHT22;41612;51.994;5.880;2023-05-17T02:08:45;9.50;80.20
55711;DHT22;41612;51.994;5.880;2023-05-17T02:11:11;9.50;80.10
55711;DHT22;41612;51.994;5.880;2023-05-17T02:13:37;9.50;80.10
55711;DHT22;41612;51.994;5.880;2023-05-17T02:16:03;9.50;80.10
55711;DHT22;41612;51.994;5.880;2023-05-17T02:18:29;9.50;80.10
55711;DHT22;41612;51.994;5.880;2023-05-17T02:20:57;9.50;80.10
55711;DHT22;41612;51.994;5.880;2023-05-17T02:23:22;9.50;80.10
55711;DHT22;41612;51.994;5.880;2023-05-17T02:25:51;9.50;80.20
55711;DHT22;41612;51.994;5.880;2023-05-17T02:28:17;9.60;80.20
55711;DHT22;41612;51.994;5.880;2023-05-17T02:30:43;9.60;80.00
55711;DHT22;41612;51.994;5.880;2023-05-17T02:33:10;9.70;79.80
55711;DHT22;41612;51.994;5.880;2023-05-17T02:35:36;9.70;79.60
55711;DHT22;41612;51.994;5.880;2023-05-17T02:38:02;9.80;79.40
55711;DHT22;41612;51.994;5.880;2023-05-17T02:40:28;9.90;79.10
55711;DHT22;41612;51.994;5.880;2023-05-17T02:42:53;9.90;78.90
55711;DHT22;41612;51.994;5.880;2023-05-17T02:45:19;10.00;78.80
55711;DHT22;41612;51.994;5.880;2023-05-17T02:47:45;10.00;78.60
55711;DHT22;41612;51.994;5.880;2023-05-17T02:50:11;10.00;78.40
55711;DHT22;41612;51.994;5.880;2023-05-17T02:52:42;10.00;78.40
55711;DHT22;41612;51.994;5.880;2023-05-17T02:55:08;10.00;78.20
55711;DHT22;41612;51.994;5.880;2023-05-17T02:57:34;10.00;78.10
55711;DHT22;41612;51.994;5.880;2023-05-17T02:59:59;10.00;78.10
55711;DHT22;41612;51.994;5.880;2023-05-17T03:02:26;10.10;78.00
55711;DHT22;41612;51.994;5.880;2023-05-17T03:04:55;10.10;77.90
55711;DHT22;41612;51.994;5.880;2023-05-17T03:07:21;10.20;77.90
55711;DHT22;41612;51.994;5.880;2023-05-17T03:09:47;10.20;77.60
55711;DHT22;41612;51.994;5.880;2023-05-17T03:12:14;10.20;77.60
55711;DHT22;41612;51.994;5.880;2023-05-17T03:14:39;10.20;77.50
55711;DHT22;41612;51.994;5.880;2023-05-17T03:17:05;10.20;77.40
55711;DHT22;41612;51.994;5.880;2023-05-17T03:19:33;10.20;77.40
55711;DHT22;41612;51.994;5.880;2023-05-17T03:21:59;10.20;77.40
55711;DHT22;41612;51.994;5.880;2023-05-17T03:24:25;10.20;77.50
55711;DHT22;41612;51.994;5.880;2023-05-17T03:26:50;10.10;77.60
55711;DHT22;41612;51.994;5.880;2023-05-17T03:29:16;10.00;77.70
55711;DHT22;41612;51.994;5.880;2023-05-17T03:31:44;10.00;77.80
55711;DHT22;41612;51.994;5.880;2023-05-17T03:34:10;10.00;77.90
55711;DHT22;41612;51.994;5.880;2023-05-17T03:36:38;10.00;77.90
55711;DHT22;41612;51.994;5.880;2023-05-17T03:39:04;10.00;77.90
55711;DHT22;41612;51.994;5.880;2023-05-17T03:41:31;10.00;77.70
55711;DHT22;41612;51.994;5.880;2023-05-17T03:43:58;10.00;77.70
55711;DHT22;41612;51.994;5.880;2023-05-17T03:46:24;10.00;77.80
55711;DHT22;41612;51.994;5.880;2023-05-17T03:48:50;10.00;77.80
55711;DHT22;41612;51.994;5.880;2023-05-17T03:51:16;10.00;77.80
55711;DHT22;41612;51.994;5.880;2023-05-17T03:53:43;10.00;77.70
55711;DHT22;41612;51.994;5.880;2023-05-17T03:56:12;10.00;77.70
55711;DHT22;41612;51.994;5.880;2023-05-17T03:58:37;10.00;77.60
55711;DHT22;41612;51.994;5.880;2023-05-17T04:01:04;10.00;77.70
55711;DHT22;41612;51.994;5.880;2023-05-17T04:03:31;9.90;77.80
55711;DHT22;41612;51.994;5.880;2023-05-17T04:06:03;9.90;77.80
55711;DHT22;41612;51.994;5.880;2023-05-17T04:08:33;9.80;78.00
55711;DHT22;41612;51.994;5.880;2023-05-17T04:11:00;9.80;78.20
55711;DHT22;41612;51.994;5.880;2023-05-17T04:13:35;9.70;78.40
55711;DHT22;41612;51.994;5.880;2023-05-17T04:16:04;9.70;78.60
55711;DHT22;41612;51.994;5.880;2023-05-17T04:18:34;9.70;78.70
55711;DHT22;41612;51.994;5.880;2023-05-17T04:21:00;9.60;78.80
55711;DHT22;41612;51.994;5.880;2023-05-17T04:23:26;9.60;78.80
55711;DHT22;41612;51.994;5.880;2023-05-17T04:25:52;9.50;78.80
55711;DHT22;41612;51.994;5.880;2023-05-17T04:28:19;9.50;78.70
55711;DHT22;41612;51.994;5.880;2023-05-17T04:30:46;9.50;78.70
55711;DHT22;41612;51.994;5.880;2023-05-17T04:33:13;9.50;78.80
55711;DHT22;41612;51.994;5.880;2023-05-17T04:35:41;9.50;79.00
55711;DHT22;41612;51.994;5.880;2023-05-17T04:38:08;9.40;78.90
55711;DHT22;41612;51.994;5.880;2023-05-17T07:30:34;13.50;65.80
55711;DHT22;41612;51.994;5.880;2023-05-17T07:33:07;13.70;65.20
55711;DHT22;41612;51.994;5.880;2023-05-17T13:05:40;30.40;29.80
55711;DHT22;41612;51.994;5.880;2023-05-17T14:04:47;32.20;28.30
55711;DHT22;41612;51.994;5.880;2023-05-17T14:07:13;32.70;28.20
55711;DHT22;41612;51.994;5.880;2023-05-17T14:09:38;33.20;27.90
55711;DHT22;41612;51.994;5.880;2023-05-17T14:12:07;32.60;27.90
55711;DHT22;41612;51.994;5.880;2023-05-17T14:15:02;31.50;29.50
55711;DHT22;41612;51.994;5.880;2023-05-17T14:17:31;31.60;30.00
55711;DHT22;41612;51.994;5.880;2023-05-17T14:22:53;33.20;27.50
55711;DHT22;41612;51.994;5.880;2023-05-17T14:33:39;34.60;26.50
55711;DHT22;41612;51.994;5.880;2023-05-17T14:38:59;34.90;25.80
55711;DHT22;41612;51.994;5.880;2023-05-17T14:41:26;35.30;23.30
55711;DHT22;41612;51.994;5.880;2023-05-17T14:43:51;35.80;24.40
55711;DHT22;41612;51.994;5.880;2023-05-17T14:46:17;35.60;24.40
55711;DHT22;41612;51.994;5.880;2023-05-17T14:48:44;34.60;25.20
55711;DHT22;41612;51.994;5.880;2023-05-17T14:51:09;34.30;25.90
55711;DHT22;41612;51.994;5.880;2023-05-17T14:53:38;34.30;25.60
55711;DHT22;41612;51.994;5.880;2023-05-17T14:56:06;34.70;25.40
55711;DHT22;41612;51.994;5.880;2023-05-17T14:58:32;35.10;25.50
55711;DHT22;41612;51.994;5.880;2023-05-17T15:00:57;35.70;25.00
55711;DHT22;41612;51.994;5.880;2023-05-17T15:03:24;36.20;24.70
55711;DHT22;41612;51.994;5.880;2023-05-17T15:05:54;36.70;24.10
55711;DHT22;41612;51.994;5.880;2023-05-17T15:08:20;37.00;23.10
55711;DHT22;41612;51.994;5.880;2023-05-17T15:10:47;35.80;24.40
55711;DHT22;41612;51.994;5.880;2023-05-17T15:13:14;33.60;26.30
55711;DHT22;41612;51.994;5.880;2023-05-17T15:15:39;31.30;28.70
55711;DHT22;41612;51.994;5.880;2023-05-17T15:18:08;31.20;28.50
55711;DHT22;41612;51.994;5.880;2023-05-17T15:20:36;32.10;29.00
55711;DHT22;41612;51.994;5.880;2023-05-17T15:23:02;33.20;27.70
55711;DHT22;41612;51.994;5.880;2023-05-17T15:25:27;33.90;27.00
55711;DHT22;41612;51.994;5.880;2023-05-17T15:27:53;34.70;24.00
55711;DHT22;41612;51.994;5.880;2023-05-17T15:30:19;35.10;24.90
55711;DHT22;41612;51.994;5.880;2023-05-17T15:32:45;33.80;26.20
55711;DHT22;41612;51.994;5.880;2023-05-17T15:35:11;31.70;27.50
55711;DHT22;41612;51.994;5.880;2023-05-17T15:37:36;29.80;30.30
55711;DHT22;41612;51.994;5.880;2023-05-17T15:40:07;29.90;30.70
55711;DHT22;41612;51.994;5.880;2023-05-17T15:42:33;31.30;28.50
55711;DHT22;41612;51.994;5.880;2023-05-17T15:44:59;32.00;28.20
55711;DHT22;41612;51.994;5.880;2023-05-17T15:47:25;32.60;27.90
55711;DHT22;41612;51.994;5.880;2023-05-17T15:49:50;33.40;26.80
55711;DHT22;41612;51.994;5.880;2023-05-17T15:52:16;34.20;24.80
55711;DHT22;41612;51.994;5.880;2023-05-17T15:54:42;34.80;25.40
55711;DHT22;41612;51.994;5.880;2023-05-17T15:57:08;35.20;25.20
55711;DHT22;41612;51.994;5.880;2023-05-17T15:59:34;35.50;24.50
55711;DHT22;41612;51.994;5.880;2023-05-17T16:01:59;35.80;23.80
55711;DHT22;41612;51.994;5.880;2023-05-17T16:04:25;35.90;24.30
55711;DHT22;41612;51.994;5.880;2023-05-17T16:06:51;35.70;22.80
55711;DHT22;41612;51.994;5.880;2023-05-17T16:09:16;35.50;24.40
55711;DHT22;41612;51.994;5.880;2023-05-17T16:11:42;34.90;24.50
55711;DHT22;41612;51.994;5.880;2023-05-17T16:14:08;33.70;24.70
55711;DHT22;41612;51.994;5.880;2023-05-17T17:45:02;19.60;55.00
55711;DHT22;41612;51.994;5.880;2023-05-17T17:50:10;19.40;55.70
55711;DHT22;41612;51.994;5.880;2023-05-17T17:52:45;19.30;55.90
55711;DHT22;41612;51.994;5.880;2023-05-17T17:55:11;19.20;56.40
55711;DHT22;41612;51.994;5.880;2023-05-17T17:57:38;19.10;53.10
55711;DHT22;41612;51.994;5.880;2023-05-17T18:00:04;19.00;56.10
55711;DHT22;41612;51.994;5.880;2023-05-17T18:02:31;18.80;56.90
55711;DHT22;41612;51.994;5.880;2023-05-17T18:04:56;18.70;56.30
55711;DHT22;41612;51.994;5.880;2023-05-17T18:07:22;18.50;55.70
55711;DHT22;41612;51.994;5.880;2023-05-17T18:09:48;18.30;53.30
55711;DHT22;41612;51.994;5.880;2023-05-17T18:12:15;18.20;54.50
55711;DHT22;41612;51.994;5.880;2023-05-17T18:14:41;18.20;55.90
55711;DHT22;41612;51.994;5.880;2023-05-17T18:17:07;18.00;54.60
55711;DHT22;41612;51.994;5.880;2023-05-17T18:19:36;17.90;57.90
55711;DHT22;41612;51.994;5.880;2023-05-17T18:27:28;17.80;59.50
55711;DHT22;41612;51.994;5.880;2023-05-17T18:29:56;17.70;60.70
55711;DHT22;41612;51.994;5.880;2023-05-17T18:32:22;17.70;60.80
55711;DHT22;41612;51.994;5.880;2023-05-17T18:34:48;17.60;60.90
55711;DHT22;41612;51.994;5.880;2023-05-17T20:23:06;14.40;67.40
55711;DHT22;41612;51.994;5.880;2023-05-17T20:25:33;14.40;67.60
55711;DHT22;41612;51.994;5.880;2023-05-17T20:28:12;14.30;67.70
55711;DHT22;41612;51.994;5.880;2023-05-17T20:30:43;14.30;67.90
55711;DHT22;41612;51.994;5.880;2023-05-17T20:33:23;14.20;68.10
55711;DHT22;41612;51.994;5.880;2023-05-17T20:35:55;14.10;68.30
55711;DHT22;41612;51.994;5.880;2023-05-17T20:38:21;14.10;68.30
55711;DHT22;41612;51.994;5.880;2023-05-17T20:40:52;14.00;68.40
55711;DHT22;41612;51.994;5.880;2023-05-17T20:43:19;14.00;68.70
55711;DHT22;41612;51.994;5.880;2023-05-17T20:45:44;13.90;68.80
55711;DHT22;41612;51.994;5.880;2023-05-17T20:48:13;13.80;68.90
55711;DHT22;41612;51.994;5.880;2023-05-17T20:50:43;13.80;69.10
55711;DHT22;41612;51.994;5.880;2023-05-17T20:53:09;13.70;69.00
55711;DHT22;41612;51.994;5.880;2023-05-17T20:55:38;13.70;69.20
55711;DHT22;41612;51.994;5.880;2023-05-17T20:58:03;13.60;69.30
55711;DHT22;41612;51.994;5.880;2023-05-17T21:00:29;13.50;69.50
55711;DHT22;41612;51.994;5.880;2023-05-17T21:02:55;13.40;69.60
55711;DHT22;41612;51.994;5.880;2023-05-17T21:05:24;13.30;69.90
55711;DHT22;41612;51.994;5.880;2023-05-17T21:07:50;13.30;70.10
55711;DHT22;41612;51.994;5.880;2023-05-17T21:10:19;13.30;70.20
55711;DHT22;41612;51.994;5.880;2023-05-17T21:12:44;13.20;70.30
55711;DHT22;41612;51.994;5.880;2023-05-17T21:15:10;13.20;70.40
55711;DHT22;41612;51.994;5.880;2023-05-17T21:17:36;13.20;70.40
55711;DHT22;41612;51.994;5.880;2023-05-17T21:20:05;13.20;70.50
55711;DHT22;41612;51.994;5.880;2023-05-17T21:22:33;13.10;70.60
55711;DHT22;41612;51.994;5.880;2023-05-17T21:24:59;13.00;70.70
55711;DHT22;41612;51.994;5.880;2023-05-17T21:27:37;13.00;70.80
55711;DHT22;41612;51.994;5.880;2023-05-17T21:30:04;12.90;70.90
55711;DHT22;41612;51.994;5.880;2023-05-17T21:32:30;12.90;71.10
55711;DHT22;41612;51.994;5.880;2023-05-17T21:34:55;12.80;71.20
55711;DHT22;41612;51.994;5.880;2023-05-17T21:37:24;12.80;71.20
55711;DHT22;41612;51.994;5.880;2023-05-17T21:39:50;12.80;71.30
55711;DHT22;41612;51.994;5.880;2023-05-17T21:42:17;12.70;71.50
55711;DHT22;41612;51.994;5.880;2023-05-17T21:44:43;12.70;71.60
55711;DHT22;41612;51.994;5.880;2023-05-17T21:47:09;12.60;71.70
55711;DHT22;41612;51.994;5.880;2023-05-17T21:49:35;12.60;71.80
55711;DHT22;41612;51.994;5.880;2023-05-17T21:52:01;12.50;71.90
55711;DHT22;41612;51.994;5.880;2023-05-17T21:54:26;12.50;72.00
55711;DHT22;41612;51.994;5.880;2023-05-17T21:56:52;12.40;72.10
55711;DHT22;41612;51.994;5.880;2023-05-17T21:59:21;12.30;72.20
55711;DHT22;41612;51.994;5.880;2023-05-17T22:01:49;12.30;72.30
55711;DHT22;41612;51.994;5.880;2023-05-17T22:04:18;12.30;72.50
55711;DHT22;41612;51.994;5.880;2023-05-17T22:06:44;12.20;72.50
55711;DHT22;41612;51.994;5.880;2023-05-17T22:09:13;12.20;72.60
55711;DHT22;41612;51.994;5.880;2023-05-17T22:11:39;12.10;72.60
55711;DHT22;41612;51.994;5.880;2023-05-17T22:14:05;12.10;72.60
55711;DHT22;41612;51.994;5.880;2023-05-17T22:16:33;12.00;72.70
55711;DHT22;41612;51.994;5.880;2023-05-17T22:18:59;12.00;72.80
55711;DHT22;41612;51.994;5.880;2023-05-17T22:21:26;11.90;72.90
55711;DHT22;41612;51.994;5.880;2023-05-17T22:23:59;11.90;72.90
55711;DHT22;41612;51.994;5.880;2023-05-17T22:26:28;11.80;72.90
55711;DHT22;41612;51.994;5.880;2023-05-17T22:28:54;11.80;73.00
55711;DHT22;41612;51.994;5.880;2023-05-17T22:31:20;11.70;73.00
55711;DHT22;41612;51.994;5.880;2023-05-17T22:33:47;11.70;73.10
55711;DHT22;41612;51.994;5.880;2023-05-17T22:36:13;11.70;73.10
55711;DHT22;41612;51.994;5.880;2023-05-17T22:38:45;11.60;73.20
55711;DHT22;41612;51.994;5.880;2023-05-17T22:41:11;11.50;73.10
55711;DHT22;41612;51.994;5.880;2023-05-17T22:43:40;11.50;73.20
55711;DHT22;41612;51.994;5.880;2023-05-17T22:46:06;11.50;73.20
55711;DHT22;41612;51.994;5.880;2023-05-17T22:48:31;11.50;73.30
55711;DHT22;41612;51.994;5.880;2023-05-17T22:51:00;11.40;73.30
55711;DHT22;41612;51.994;5.880;2023-05-17T22:53:28;11.30;73.30
55711;DHT22;41612;51.994;5.880;2023-05-17T22:55:54;11.30;73.40
55711;DHT22;41612;51.994;5.880;2023-05-17T22:58:20;11.30;73.30
55711;DHT22;41612;51.994;5.880;2023-05-17T23:00:48;11.30;73.30
55711;DHT22;41612;51.994;5.880;2023-05-17T23:03:16;11.20;73.50
55711;DHT22;41612;51.994;5.880;2023-05-17T23:05:42;11.20;73.40
55711;DHT22;41612;51.994;5.880;2023-05-17T23:08:08;11.20;73.40
55711;DHT22;41612;51.994;5.880;2023-05-17T23:10:36;11.20;73.40
55711;DHT22;41612;51.994;5.880;2023-05-17T23:13:02;11.10;73.40
55711;DHT22;41612;51.994;5.880;2023-05-17T23:15:28;11.10;73.50
55711;DHT22;41612;51.994;5.880;2023-05-17T23:17:54;11.10;73.40
55711;DHT22;41612;51.994;5.880;2023-05-17T23:20:20;11.00;73.30
55711;DHT22;41612;51.994;5.880;2023-05-17T23:22:47;11.00;73.30
55711;DHT22;41612;51.994;5.880;2023-05-17T23:25:15;11.00;73.40
55711;DHT22;41612;51.994;5.880;2023-05-17T23:27:43;10.90;73.50
55711;DHT22;41612;51.994;5.880;2023-05-17T23:30:09;10.90;73.50
55711;DHT22;41612;51.994;5.880;2023-05-17T23:32:35;10.80;73.50
55711;DHT22;41612;51.994;5.880;2023-05-17T23:35:08;10.80;73.60
55711;DHT22;41612;51.994;5.880;2023-05-17T23:37:35;10.70;73.70
55711;DHT22;41612;51.994;5.880;2023-05-17T23:40:02;10.70;73.80
55711;DHT22;41612;51.994;5.880;2023-05-17T23:42:31;10.70;73.80
55711;DHT22;41612;51.994;5.880;2023-05-17T23:44:57;10.60;73.90
55711;DHT22;41612;51.994;5.880;2023-05-17T23:47:24;10.60;74.00
55711;DHT22;41612;51.994;5.880;2023-05-17T23:49:50;10.60;73.90
55711;DHT22;41612;51.994;5.880;2023-05-17T23:52:16;10.50;74.10
55711;DHT22;41612;51.994;5.880;2023-05-17T23:54:44;10.50;74.20
55711;DHT22;41612;51.994;5.880;2023-05-17T23:57:11;10.40;74.20
55711;DHT22;41612;51.994;5.880;2023-05-17T23:59:36;10.40;74.30
